Victorica, Argentina
Current Conditions -  °F | °C
As of 8:00 PM on Saturday 22 Nov 2014 (Local Time) from SLYA Reporting Station
Overcast Overcast  
Wind Chill: 68°   Ceiling: 7000
Heat Index: 68°   Visibility: 6mi
Dew Point: 64°   Wind: 5mph
Humidity: 88%   Direction: 180°S
Pressure: 30"   Gusts: NA
Location:  23.62°S, 63.22°W
Report Text: SLYA 222300Z 18004KT 9999 OVC070 20/18 Q1016
Loading
Personal Weather Stations






























Interactive Weather Map New forecast layout! Learn more

10-Day Weather Forecast

Advertisements
Track Severe Weather on mobile